sensor_id;sensor_type;location;lat;lon;timestamp;P1;durP1;ratioP1;P2;durP2;ratioP2
57375;SDS011;44805;45.048;5.062;2022-10-30T00:00:23;12.85;;;6.00;;
57375;SDS011;44805;45.048;5.062;2022-10-30T00:02:49;18.50;;;7.07;;
57375;SDS011;44805;45.048;5.062;2022-10-30T00:05:15;11.98;;;6.00;;
57375;SDS011;44805;45.048;5.062;2022-10-30T00:07:41;11.70;;;6.90;;
57375;SDS011;44805;45.048;5.062;2022-10-30T00:10:07;16.00;;;6.75;;
57375;SDS011;44805;45.048;5.062;2022-10-30T00:12:33;15.50;;;6.78;;
57375;SDS011;44805;45.048;5.062;2022-10-30T00:17:34;13.30;;;6.15;;
57375;SDS011;44805;45.048;5.062;2022-10-30T00:19:59;14.00;;;6.78;;
57375;SDS011;44805;45.048;5.062;2022-10-30T00:22:28;13.23;;;6.50;;
57375;SDS011;44805;45.048;5.062;2022-10-30T00:24:54;12.15;;;6.13;;
57375;SDS011;44805;45.048;5.062;2022-10-30T00:27:19;15.10;;;6.43;;
57375;SDS011;44805;45.048;5.062;2022-10-30T00:34:55;11.43;;;6.60;;
57375;SDS011;44805;45.048;5.062;2022-10-30T00:37:26;15.35;;;7.57;;
57375;SDS011;44805;45.048;5.062;2022-10-30T00:39:54;15.50;;;8.15;;
57375;SDS011;44805;45.048;5.062;2022-10-30T00:42:27;12.90;;;6.28;;
57375;SDS011;44805;45.048;5.062;2022-10-30T00:44:58;15.32;;;6.45;;
57375;SDS011;44805;45.048;5.062;2022-10-30T00:47:29;14.30;;;6.90;;
57375;SDS011;44805;45.048;5.062;2022-10-30T00:50:04;14.40;;;6.82;;
57375;SDS011;44805;45.048;5.062;2022-10-30T00:53:03;13.95;;;6.70;;
57375;SDS011;44805;45.048;5.062;2022-10-30T00:55:35;15.10;;;6.93;;
57375;SDS011;44805;45.048;5.062;2022-10-30T00:58:09;16.25;;;7.40;;
57375;SDS011;44805;45.048;5.062;2022-10-30T01:00:43;13.77;;;6.88;;
57375;SDS011;44805;45.048;5.062;2022-10-30T01:03:15;13.88;;;6.85;;
57375;SDS011;44805;45.048;5.062;2022-10-30T01:05:45;13.88;;;6.68;;
57375;SDS011;44805;45.048;5.062;2022-10-30T01:08:17;15.32;;;7.15;;
57375;SDS011;44805;45.048;5.062;2022-10-30T01:10:43;15.68;;;7.07;;
57375;SDS011;44805;45.048;5.062;2022-10-30T01:13:09;16.42;;;6.75;;
57375;SDS011;44805;45.048;5.062;2022-10-30T01:15:37;15.48;;;6.45;;
57375;SDS011;44805;45.048;5.062;2022-10-30T01:18:19;13.40;;;6.20;;
57375;SDS011;44805;45.048;5.062;2022-10-30T01:21:06;13.70;;;6.72;;
57375;SDS011;44805;45.048;5.062;2022-10-30T01:37:56;12.75;;;6.90;;
57375;SDS011;44805;45.048;5.062;2022-10-30T01:40:27;13.25;;;6.15;;
57375;SDS011;44805;45.048;5.062;2022-10-30T01:42:53;13.57;;;6.97;;
57375;SDS011;44805;45.048;5.062;2022-10-30T01:45:37;14.32;;;6.70;;
57375;SDS011;44805;45.048;5.062;2022-10-30T01:54:08;14.02;;;6.75;;
57375;SDS011;44805;45.048;5.062;2022-10-30T01:59:58;16.65;;;6.70;;
57375;SDS011;44805;45.048;5.062;2022-10-30T02:02:29;14.57;;;6.57;;
57375;SDS011;44805;45.048;5.062;2022-10-30T02:04:57;13.63;;;6.93;;
57375;SDS011;44805;45.048;5.062;2022-10-30T02:07:22;14.38;;;6.72;;
57375;SDS011;44805;45.048;5.062;2022-10-30T02:09:51;14.05;;;7.13;;
57375;SDS011;44805;45.048;5.062;2022-10-30T02:12:18;14.27;;;6.22;;
57375;SDS011;44805;45.048;5.062;2022-10-30T02:14:46;14.68;;;7.43;;
57375;SDS011;44805;45.048;5.062;2022-10-30T02:17:13;13.05;;;6.65;;
57375;SDS011;44805;45.048;5.062;2022-10-30T02:19:40;13.43;;;6.40;;
57375;SDS011;44805;45.048;5.062;2022-10-30T02:22:05;15.13;;;6.55;;
57375;SDS011;44805;45.048;5.062;2022-10-30T02:24:31;14.60;;;6.90;;
57375;SDS011;44805;45.048;5.062;2022-10-30T02:26:57;15.43;;;7.38;;
57375;SDS011;44805;45.048;5.062;2022-10-30T02:29:22;12.73;;;6.90;;
57375;SDS011;44805;45.048;5.062;2022-10-30T02:31:48;13.50;;;6.68;;
57375;SDS011;44805;45.048;5.062;2022-10-30T02:34:14;16.00;;;7.40;;
57375;SDS011;44805;45.048;5.062;2022-10-30T02:36:42;16.88;;;7.20;;
57375;SDS011;44805;45.048;5.062;2022-10-30T02:39:23;16.92;;;7.45;;
57375;SDS011;44805;45.048;5.062;2022-10-30T02:41:49;14.90;;;7.40;;
57375;SDS011;44805;45.048;5.062;2022-10-30T02:44:15;15.30;;;7.35;;
57375;SDS011;44805;45.048;5.062;2022-10-30T02:46:40;16.65;;;7.20;;
57375;SDS011;44805;45.048;5.062;2022-10-30T02:49:06;22.58;;;7.60;;
57375;SDS011;44805;45.048;5.062;2022-10-30T02:51:32;17.65;;;7.45;;
57375;SDS011;44805;45.048;5.062;2022-10-30T02:54:09;16.15;;;7.43;;
57375;SDS011;44805;45.048;5.062;2022-10-30T02:56:35;14.10;;;7.30;;
57375;SDS011;44805;45.048;5.062;2022-10-30T02:59:06;15.33;;;7.40;;
57375;SDS011;44805;45.048;5.062;2022-10-30T03:01:32;13.38;;;6.53;;
57375;SDS011;44805;45.048;5.062;2022-10-30T03:03:57;16.55;;;6.80;;
57375;SDS011;44805;45.048;5.062;2022-10-30T03:06:23;13.45;;;7.20;;
57375;SDS011;44805;45.048;5.062;2022-10-30T03:08:49;14.40;;;6.90;;
57375;SDS011;44805;45.048;5.062;2022-10-30T03:11:15;12.95;;;6.82;;
57375;SDS011;44805;45.048;5.062;2022-10-30T03:13:43;14.48;;;6.90;;
57375;SDS011;44805;45.048;5.062;2022-10-30T03:16:16;11.98;;;6.43;;
57375;SDS011;44805;45.048;5.062;2022-10-30T03:18:49;16.87;;;8.13;;
57375;SDS011;44805;45.048;5.062;2022-10-30T03:21:17;13.77;;;6.70;;
57375;SDS011;44805;45.048;5.062;2022-10-30T03:23:45;13.52;;;6.53;;
57375;SDS011;44805;45.048;5.062;2022-10-30T03:26:19;13.88;;;6.85;;
57375;SDS011;44805;45.048;5.062;2022-10-30T03:28:46;14.38;;;6.65;;
57375;SDS011;44805;45.048;5.062;2022-10-30T03:31:13;16.58;;;7.20;;
57375;SDS011;44805;45.048;5.062;2022-10-30T03:33:40;13.82;;;6.88;;
57375;SDS011;44805;45.048;5.062;2022-10-30T03:36:07;15.95;;;6.88;;
57375;SDS011;44805;45.048;5.062;2022-10-30T03:38:34;17.35;;;7.68;;
57375;SDS011;44805;45.048;5.062;2022-10-30T03:41:01;14.95;;;6.80;;
57375;SDS011;44805;45.048;5.062;2022-10-30T03:43:26;13.38;;;6.60;;
57375;SDS011;44805;45.048;5.062;2022-10-30T03:45:53;14.00;;;6.97;;
57375;SDS011;44805;45.048;5.062;2022-10-30T03:48:24;14.40;;;7.20;;
57375;SDS011;44805;45.048;5.062;2022-10-30T03:50:52;15.10;;;6.93;;
57375;SDS011;44805;45.048;5.062;2022-10-30T03:53:18;14.95;;;7.10;;
57375;SDS011;44805;45.048;5.062;2022-10-30T03:55:44;16.17;;;7.05;;
57375;SDS011;44805;45.048;5.062;2022-10-30T03:58:09;16.75;;;7.45;;
57375;SDS011;44805;45.048;5.062;2022-10-30T04:00:35;14.60;;;7.70;;
57375;SDS011;44805;45.048;5.062;2022-10-30T04:03:01;14.02;;;6.90;;
57375;SDS011;44805;45.048;5.062;2022-10-30T04:05:30;14.63;;;7.07;;
57375;SDS011;44805;45.048;5.062;2022-10-30T04:07:56;15.73;;;7.53;;
57375;SDS011;44805;45.048;5.062;2022-10-30T04:10:23;14.88;;;8.25;;
57375;SDS011;44805;45.048;5.062;2022-10-30T04:12:49;16.88;;;7.70;;
57375;SDS011;44805;45.048;5.062;2022-10-30T04:15:15;16.42;;;8.02;;
57375;SDS011;44805;45.048;5.062;2022-10-30T04:17:46;15.02;;;7.78;;
57375;SDS011;44805;45.048;5.062;2022-10-30T04:20:15;17.58;;;8.15;;
57375;SDS011;44805;45.048;5.062;2022-10-30T04:22:41;15.45;;;7.20;;
57375;SDS011;44805;45.048;5.062;2022-10-30T04:25:06;18.08;;;7.75;;
57375;SDS011;44805;45.048;5.062;2022-10-30T04:27:37;17.33;;;8.35;;
57375;SDS011;44805;45.048;5.062;2022-10-30T04:30:04;15.63;;;7.15;;
57375;SDS011;44805;45.048;5.062;2022-10-30T04:32:30;19.52;;;8.05;;
57375;SDS011;44805;45.048;5.062;2022-10-30T04:34:55;17.98;;;7.97;;
57375;SDS011;44805;45.048;5.062;2022-10-30T04:37:21;14.32;;;7.78;;
57375;SDS011;44805;45.048;5.062;2022-10-30T04:39:46;16.30;;;7.57;;
57375;SDS011;44805;45.048;5.062;2022-10-30T04:42:13;18.63;;;8.93;;
57375;SDS011;44805;45.048;5.062;2022-10-30T04:44:39;19.70;;;8.23;;
57375;SDS011;44805;45.048;5.062;2022-10-30T04:47:04;14.88;;;8.02;;
57375;SDS011;44805;45.048;5.062;2022-10-30T04:49:29;15.73;;;7.60;;
57375;SDS011;44805;45.048;5.062;2022-10-30T04:51:55;17.02;;;7.10;;
57375;SDS011;44805;45.048;5.062;2022-10-30T04:54:20;17.08;;;7.60;;
57375;SDS011;44805;45.048;5.062;2022-10-30T04:56:46;15.50;;;7.32;;
57375;SDS011;44805;45.048;5.062;2022-10-30T04:59:12;16.77;;;7.53;;
57375;SDS011;44805;45.048;5.062;2022-10-30T05:01:37;17.75;;;7.43;;
57375;SDS011;44805;45.048;5.062;2022-10-30T05:04:03;18.05;;;7.85;;
57375;SDS011;44805;45.048;5.062;2022-10-30T05:06:28;15.27;;;7.47;;
57375;SDS011;44805;45.048;5.062;2022-10-30T05:08:54;18.08;;;8.20;;
57375;SDS011;44805;45.048;5.062;2022-10-30T05:11:20;19.10;;;8.10;;
57375;SDS011;44805;45.048;5.062;2022-10-30T05:13:46;15.60;;;7.80;;
57375;SDS011;44805;45.048;5.062;2022-10-30T05:16:12;19.13;;;7.78;;
57375;SDS011;44805;45.048;5.062;2022-10-30T05:18:38;18.15;;;7.55;;
57375;SDS011;44805;45.048;5.062;2022-10-30T05:21:03;19.40;;;8.00;;
57375;SDS011;44805;45.048;5.062;2022-10-30T05:23:29;14.48;;;7.50;;
57375;SDS011;44805;45.048;5.062;2022-10-30T07:58:39;16.23;;;7.68;;
57375;SDS011;44805;45.048;5.062;2022-10-30T08:01:07;15.98;;;7.97;;
57375;SDS011;44805;45.048;5.062;2022-10-30T08:11:45;15.40;;;7.72;;
57375;SDS011;44805;45.048;5.062;2022-10-30T08:14:55;16.50;;;7.70;;
57375;SDS011;44805;45.048;5.062;2022-10-30T08:17:26;16.90;;;8.07;;
57375;SDS011;44805;45.048;5.062;2022-10-30T08:25:27;22.20;;;11.73;;
57375;SDS011;44805;45.048;5.062;2022-10-30T08:30:51;16.50;;;8.23;;
57375;SDS011;44805;45.048;5.062;2022-10-30T08:33:17;18.63;;;7.82;;
57375;SDS011;44805;45.048;5.062;2022-10-30T08:35:46;15.73;;;7.90;;
57375;SDS011;44805;45.048;5.062;2022-10-30T08:38:16;15.40;;;7.93;;
57375;SDS011;44805;45.048;5.062;2022-10-30T08:40:42;17.25;;;8.15;;
57375;SDS011;44805;45.048;5.062;2022-10-30T08:51:02;14.10;;;7.60;;
57375;SDS011;44805;45.048;5.062;2022-10-30T08:56:50;16.17;;;7.70;;
57375;SDS011;44805;45.048;5.062;2022-10-30T08:59:18;14.15;;;7.68;;
57375;SDS011;44805;45.048;5.062;2022-10-30T09:01:51;14.60;;;6.82;;
57375;SDS011;44805;45.048;5.062;2022-10-30T09:04:17;13.73;;;6.63;;
57375;SDS011;44805;45.048;5.062;2022-10-30T09:06:43;14.77;;;6.90;;
57375;SDS011;44805;45.048;5.062;2022-10-30T09:11:54;12.38;;;5.35;;
57375;SDS011;44805;45.048;5.062;2022-10-30T09:14:19;12.23;;;4.85;;
57375;SDS011;44805;45.048;5.062;2022-10-30T09:16:47;14.30;;;5.10;;
57375;SDS011;44805;45.048;5.062;2022-10-30T09:19:15;13.10;;;5.15;;
57375;SDS011;44805;45.048;5.062;2022-10-30T09:54:18;10.43;;;3.90;;
57375;SDS011;44805;45.048;5.062;2022-10-30T10:05:16;13.18;;;4.97;;
57375;SDS011;44805;45.048;5.062;2022-10-30T10:08:01;10.52;;;4.00;;
57375;SDS011;44805;45.048;5.062;2022-10-30T10:13:24;9.80;;;3.83;;
57375;SDS011;44805;45.048;5.062;2022-10-30T10:16:17;13.73;;;4.72;;
57375;SDS011;44805;45.048;5.062;2022-10-30T11:50:02;11.10;;;3.97;;
57375;SDS011;44805;45.048;5.062;2022-10-30T11:56:20;9.20;;;3.70;;
57375;SDS011;44805;45.048;5.062;2022-10-30T11:58:48;10.02;;;3.97;;
57375;SDS011;44805;45.048;5.062;2022-10-30T12:01:26;13.13;;;4.65;;
57375;SDS011;44805;45.048;5.062;2022-10-30T12:03:54;12.75;;;3.95;;
57375;SDS011;44805;45.048;5.062;2022-10-30T12:11:33;11.38;;;3.97;;
57375;SDS011;44805;45.048;5.062;2022-10-30T12:51:45;9.77;;;3.15;;
57375;SDS011;44805;45.048;5.062;2022-10-30T12:57:24;12.07;;;3.45;;
57375;SDS011;44805;45.048;5.062;2022-10-30T13:13:41;16.02;;;4.25;;
57375;SDS011;44805;45.048;5.062;2022-10-30T13:16:16;10.73;;;3.42;;
57375;SDS011;44805;45.048;5.062;2022-10-30T13:18:46;9.45;;;3.25;;
57375;SDS011;44805;45.048;5.062;2022-10-30T13:21:23;11.30;;;3.50;;
57375;SDS011;44805;45.048;5.062;2022-10-30T13:26:35;10.20;;;3.70;;
57375;SDS011;44805;45.048;5.062;2022-10-30T13:50:21;12.98;;;3.38;;
57375;SDS011;44805;45.048;5.062;2022-10-30T13:52:55;10.57;;;3.40;;
57375;SDS011;44805;45.048;5.062;2022-10-30T13:55:25;11.27;;;3.78;;
57375;SDS011;44805;45.048;5.062;2022-10-30T14:11:38;9.65;;;3.10;;
57375;SDS011;44805;45.048;5.062;2022-10-30T14:14:04;12.93;;;3.83;;
57375;SDS011;44805;45.048;5.062;2022-10-30T14:17:11;10.83;;;3.30;;
57375;SDS011;44805;45.048;5.062;2022-10-30T14:22:29;10.27;;;3.25;;
57375;SDS011;44805;45.048;5.062;2022-10-30T14:24:56;8.85;;;3.20;;
57375;SDS011;44805;45.048;5.062;2022-10-30T14:27:29;11.15;;;3.30;;
57375;SDS011;44805;45.048;5.062;2022-10-30T14:29:56;9.60;;;3.10;;
57375;SDS011;44805;45.048;5.062;2022-10-30T14:37:14;10.85;;;3.10;;
57375;SDS011;44805;45.048;5.062;2022-10-30T14:39:44;11.60;;;3.17;;
57375;SDS011;44805;45.048;5.062;2022-10-30T14:42:24;11.10;;;4.40;;
57375;SDS011;44805;45.048;5.062;2022-10-30T14:45:06;8.63;;;3.80;;
57375;SDS011;44805;45.048;5.062;2022-10-30T14:50:26;9.70;;;3.00;;
57375;SDS011;44805;45.048;5.062;2022-10-30T15:05:51;9.93;;;2.73;;
57375;SDS011;44805;45.048;5.062;2022-10-30T15:11:16;8.18;;;2.75;;
57375;SDS011;44805;45.048;5.062;2022-10-30T15:13:49;12.05;;;2.95;;
57375;SDS011;44805;45.048;5.062;2022-10-30T15:16:20;11.50;;;3.88;;
57375;SDS011;44805;45.048;5.062;2022-10-30T15:18:51;12.35;;;3.50;;
57375;SDS011;44805;45.048;5.062;2022-10-30T15:21:23;8.70;;;3.05;;
57375;SDS011;44805;45.048;5.062;2022-10-30T15:23:53;9.45;;;2.88;;
57375;SDS011;44805;45.048;5.062;2022-10-30T15:26:22;9.20;;;3.53;;
57375;SDS011;44805;45.048;5.062;2022-10-30T15:28:50;9.35;;;3.13;;
57375;SDS011;44805;45.048;5.062;2022-10-30T15:31:22;10.48;;;3.33;;
57375;SDS011;44805;45.048;5.062;2022-10-30T15:33:49;12.23;;;3.50;;
57375;SDS011;44805;45.048;5.062;2022-10-30T15:36:18;9.75;;;3.40;;
57375;SDS011;44805;45.048;5.062;2022-10-30T15:39:09;9.88;;;3.40;;
57375;SDS011;44805;45.048;5.062;2022-10-30T15:41:57;8.93;;;3.47;;
57375;SDS011;44805;45.048;5.062;2022-10-30T15:44:26;10.02;;;2.92;;
57375;SDS011;44805;45.048;5.062;2022-10-30T15:46:54;8.40;;;3.10;;
57375;SDS011;44805;45.048;5.062;2022-10-30T15:49:29;10.90;;;3.20;;
57375;SDS011;44805;45.048;5.062;2022-10-30T15:51:55;12.73;;;3.22;;
57375;SDS011;44805;45.048;5.062;2022-10-30T15:54:21;10.82;;;3.33;;
57375;SDS011;44805;45.048;5.062;2022-10-30T15:56:49;12.82;;;4.00;;
57375;SDS011;44805;45.048;5.062;2022-10-30T15:59:22;9.13;;;3.33;;
57375;SDS011;44805;45.048;5.062;2022-10-30T16:01:54;13.50;;;3.22;;
57375;SDS011;44805;45.048;5.062;2022-10-30T16:04:22;8.82;;;3.30;;
57375;SDS011;44805;45.048;5.062;2022-10-30T16:09:16;7.38;;;2.90;;
57375;SDS011;44805;45.048;5.062;2022-10-30T16:11:41;12.77;;;3.90;;
57375;SDS011;44805;45.048;5.062;2022-10-30T16:14:07;8.18;;;3.10;;
57375;SDS011;44805;45.048;5.062;2022-10-30T16:16:46;13.02;;;3.85;;
57375;SDS011;44805;45.048;5.062;2022-10-30T16:19:17;11.63;;;3.58;;
57375;SDS011;44805;45.048;5.062;2022-10-30T16:21:44;11.50;;;3.70;;
57375;SDS011;44805;45.048;5.062;2022-10-30T16:24:11;11.20;;;3.13;;
57375;SDS011;44805;45.048;5.062;2022-10-30T16:26:36;8.38;;;3.55;;
57375;SDS011;44805;45.048;5.062;2022-10-30T16:31:37;9.20;;;3.20;;
57375;SDS011;44805;45.048;5.062;2022-10-30T16:34:04;10.90;;;3.30;;
57375;SDS011;44805;45.048;5.062;2022-10-30T16:36:36;8.63;;;3.35;;
57375;SDS011;44805;45.048;5.062;2022-10-30T16:39:03;10.50;;;3.42;;
57375;SDS011;44805;45.048;5.062;2022-10-30T16:41:29;11.10;;;3.78;;
57375;SDS011;44805;45.048;5.062;2022-10-30T16:46:40;12.55;;;3.40;;
57375;SDS011;44805;45.048;5.062;2022-10-30T16:49:16;12.00;;;3.73;;
57375;SDS011;44805;45.048;5.062;2022-10-30T16:51:44;9.88;;;3.65;;
57375;SDS011;44805;45.048;5.062;2022-10-30T16:54:20;9.07;;;3.60;;
57375;SDS011;44805;45.048;5.062;2022-10-30T16:59:25;9.52;;;3.65;;
57375;SDS011;44805;45.048;5.062;2022-10-30T17:01:55;9.75;;;3.70;;
57375;SDS011;44805;45.048;5.062;2022-10-30T17:07:00;10.90;;;4.47;;
57375;SDS011;44805;45.048;5.062;2022-10-30T17:09:29;9.45;;;4.05;;
57375;SDS011;44805;45.048;5.062;2022-10-30T17:12:05;12.02;;;4.20;;
57375;SDS011;44805;45.048;5.062;2022-10-30T17:14:55;8.45;;;3.47;;
57375;SDS011;44805;45.048;5.062;2022-10-30T17:17:37;11.95;;;4.40;;
57375;SDS011;44805;45.048;5.062;2022-10-30T17:22:37;12.43;;;4.78;;
57375;SDS011;44805;45.048;5.062;2022-10-30T17:28:02;10.85;;;4.93;;
57375;SDS011;44805;45.048;5.062;2022-10-30T17:30:36;13.10;;;4.65;;
57375;SDS011;44805;45.048;5.062;2022-10-30T17:35:56;14.05;;;4.80;;
57375;SDS011;44805;45.048;5.062;2022-10-30T17:38:21;12.77;;;4.78;;
57375;SDS011;44805;45.048;5.062;2022-10-30T17:40:47;11.43;;;4.78;;
57375;SDS011;44805;45.048;5.062;2022-10-30T17:43:13;11.98;;;4.60;;
57375;SDS011;44805;45.048;5.062;2022-10-30T17:45:39;11.80;;;4.68;;
57375;SDS011;44805;45.048;5.062;2022-10-30T17:48:15;11.10;;;4.60;;
57375;SDS011;44805;45.048;5.062;2022-10-30T17:50:42;9.63;;;4.70;;
57375;SDS011;44805;45.048;5.062;2022-10-30T17:53:15;12.50;;;4.45;;
57375;SDS011;44805;45.048;5.062;2022-10-30T17:55:46;9.25;;;4.32;;
57375;SDS011;44805;45.048;5.062;2022-10-30T17:58:13;11.77;;;5.22;;
57375;SDS011;44805;45.048;5.062;2022-10-30T18:00:39;12.02;;;4.97;;
57375;SDS011;44805;45.048;5.062;2022-10-30T18:03:04;11.05;;;4.60;;
57375;SDS011;44805;45.048;5.062;2022-10-30T18:05:31;13.02;;;5.55;;
57375;SDS011;44805;45.048;5.062;2022-10-30T18:07:59;13.07;;;5.55;;
57375;SDS011;44805;45.048;5.062;2022-10-30T18:10:24;12.77;;;5.35;;
57375;SDS011;44805;45.048;5.062;2022-10-30T18:12:50;12.27;;;4.85;;
57375;SDS011;44805;45.048;5.062;2022-10-30T18:17:58;10.48;;;5.10;;
57375;SDS011;44805;45.048;5.062;2022-10-30T18:20:24;11.93;;;5.03;;
57375;SDS011;44805;45.048;5.062;2022-10-30T18:22:51;10.98;;;5.10;;
57375;SDS011;44805;45.048;5.062;2022-10-30T18:25:29;10.02;;;5.10;;
57375;SDS011;44805;45.048;5.062;2022-10-30T18:27:56;12.05;;;4.95;;
57375;SDS011;44805;45.048;5.062;2022-10-30T18:30:22;11.82;;;5.32;;
57375;SDS011;44805;45.048;5.062;2022-10-30T18:32:50;12.95;;;5.70;;
57375;SDS011;44805;45.048;5.062;2022-10-30T18:38:02;13.50;;;5.67;;
57375;SDS011;44805;45.048;5.062;2022-10-30T18:40:30;14.65;;;5.90;;
57375;SDS011;44805;45.048;5.062;2022-10-30T18:42:56;11.95;;;5.40;;
57375;SDS011;44805;45.048;5.062;2022-10-30T18:45:23;13.10;;;5.38;;
